Ocean Moon — 3EVH8 — position and weather

sailwx.info

Track history (hours):
 
Tides and Currents Weather Stations Pressure Air Temp Water Temp Dewpoint Dewpoint Depression Visibility Wind Speed Wind Dir Waves Ship Positions

Ocean Moon

Last reported at 2017-Oct-18 05:58 UTC. Time now 2017-Nov-18 08:34 UTC.
Position N 14°30' W 061°19'.
Warning: this ship's position is 31 days out of date.

Length 92 m; draft 5.3 m.

Type: Tanker. MMSI: 353455000.

Date/timePositionNaut miles runAvg speedWind from/ knotsBaromVisibWave heightAir tempDewpointWater temp
2017-Oct-18 05:58N 14°30' W 061°19'122 9.6
2017-Oct-17 17:20N 16°19' W 062°14'1410.6
2017-Oct-17 16:01N 16°32' W 062°21'010.9
2017-Oct-17 15:59N 16°32' W 062°21'710.8
2017-Oct-17 15:19N 16°39' W 062°24'310.7
2017-Oct-17 15:00N 16°41' W 062°25'  
2017-Oct-14 08:34N 16°43' W 062°34'110.5
2017-Oct-14 08:29N 16°42' W 062°33'510.5
2017-Oct-14 08:00N 16°37' W 062°33'510.7
2017-Oct-14 07:30N 16°32' W 062°32'510.9
2017-Oct-14 07:00N 16°26' W 062°31'  
Track history (hours):
 
Tides and Currents Weather Stations Pressure Air Temp Water Temp Dewpoint Dewpoint Depression Visibility Wind Speed Wind Dir Waves Ship Positions

Ocean Moon

Last reported at 2017-Oct-18 05:58 UTC. Time now 2017-Nov-18 08:34 UTC.
Position N 14°30' W 061°19'.
Warning: this ship's position is 31 days out of date.

Length 92 m; draft 5.3 m.

Type: Tanker. MMSI: 353455000.

Date/timePositionNaut miles runAvg speedWind from/ knotsBaromVisibWave heightAir tempDewpointWater temp
2017-Oct-18 05:58N 14°30' W 061°19'122 9.6
2017-Oct-17 17:20N 16°19' W 062°14'1410.6
2017-Oct-17 16:01N 16°32' W 062°21'010.9
2017-Oct-17 15:59N 16°32' W 062°21'710.8
2017-Oct-17 15:19N 16°39' W 062°24'310.7
2017-Oct-17 15:00N 16°41' W 062°25'  
2017-Oct-14 08:34N 16°43' W 062°34'110.5
2017-Oct-14 08:29N 16°42' W 062°33'510.5
2017-Oct-14 08:00N 16°37' W 062°33'510.7
2017-Oct-14 07:30N 16°32' W 062°32'510.9
2017-Oct-14 07:00N 16°26' W 062°31'  

Dump ship's entire track history